Flight Track Log - Related Links

Times and Time Zones

All times are in EDT time to prevent confusion due to time zone crossing. See the RPA3496 flight status page for this flight to view local times or setup timezone preferences in your user account.

Time Position Orientation Groundspeed Altitude Reporting Facility
EDT Latitude Longitude Course Direction KTS MPH feet Rate Location/Type
04:01PM 40.7833 -73.7667 72° East 240 276 4,700  Level New York TRACON
04:02PM 40.8500 -73.7667 360° North 287 330 7,800 2,150 Climbing New York TRACON
04:03PM 40.7690 -74.3044 269° West  Level Estimated
04:03PM 40.8667 -73.8667 282° West 274 315 9,000  Level New York TRACON
04:04PM 40.7666 -74.4123 268° West  Level Estimated
04:04PM 40.8833 -73.9667 282° West 282 325 10,400  Level New York TRACON
04:05PM 40.7748 -74.5198 276° West  Level FlightAware Approximate
04:05PM 40.8833 -74.0667 270° West 304 350 13,200  Level New York TRACON
04:06PM 40.8667 -74.2000 261° West 341 392 14,700 1,194 Climbing New York TRACON
04:08PM 40.8514 -74.4772 266° West 364 419 17,000 715 Climbing New York Center
04:09PM 40.8411 -74.6056 264° West 364 419 17,000  Level New York Center
04:10PM 40.8325 -74.7394 265° West 364 419 17,000 900 Level New York Center
04:11PM 40.8236 -74.8733 265° West 370 426 18,800 1,815 Climbing New York Center
04:12PM 40.8111 -74.9933 262° West 370 426 20,600 2,017 Climbing New York Center
04:13PM 40.8019 -75.1297 265° West 370 426 22,800 1,659 Climbing New York Center
04:14PM 40.7772 -75.2925 259° West 396 456 24,000 605 Climbing New York Center
04:15PM 40.7447 -75.4303 253° West 401 461 24,000  Level New York Center
04:16PM 40.6997 -75.5611 246° West 395 455 24,000  Level New York Center
04:17PM 40.6531 -75.6867 244° Southwest 395 455 24,000  Level New York Center
04:18PM 40.6058 -75.8144 244° Southwest 395 455 24,000  Level New York Center
04:19PM 40.5572 -75.9311 241° Southwest 395 455 24,000  Level New York Center
04:20PM 40.5100 -76.0558 244° Southwest 395 455 24,000  Level New York Center
04:21PM 40.4625 -76.1858 244° Southwest 395 455 24,000  Level New York Center
04:22PM 40.4128 -76.3100 242° Southwest 395 455 24,000  Level New York Center
04:23PM 40.3650 -76.4372 244° Southwest 395 455 24,000  Level New York Center
04:24PM 40.3153 -76.5608 242° Southwest 395 455 24,000  Level New York Center
04:25PM 40.2675 -76.6850 243° Southwest 395 455 24,000  Level New York Center
04:26PM 40.2175 -76.8083 242° Southwest 395 455 24,000  Level New York Center
04:27PM 40.1697 -76.9264 242° Southwest 388 447 24,000  Level New York Center
04:28PM 40.1208 -77.0633 245° Southwest 383 441 24,000  Level New York Center
04:29PM 40.0967 -77.2022 257° West 383 441 24,000 -347 Level New York Center
04:30PM 40.0767 -77.3389 259° West 383 441 23,300 -700 Descending New York Center
04:31PM 40.0522 -77.4778 257° West 393 452 22,600 -634 Descending New York Center
04:32PM 40.0328 -77.6014 258° West 381 438 22,000 -290 Descending Cleveland Center
04:33PM 40.0103 -77.7350 258° West 380 437 22,000  Level Cleveland Center
04:34PM 39.9822 -77.8931 257° West 377 434 22,000  Level Cleveland Center
04:35PM 39.9736 -78.0294 265° West 379 436 22,000  Level Cleveland Center
04:36PM 39.9767 -78.1592 272° West 364 419 22,000 -339 Level Cleveland Center
04:37PM 39.9794 -78.2811 272° West 358 412 21,300 -1,306 Descending Cleveland Center
04:38PM 39.9836 -78.4342 272° West 356 410 19,300 -1,355 Descending Cleveland Center
04:40PM 39.9869 -78.5581 272° West 348 400 18,500 -720 Descending Cleveland Center
04:41PM 40.0036 -78.6786 280° West 343 395 17,800 -768 Descending Cleveland Center
04:42PM 40.0264 -78.7931 285° West 330 380 16,900 -823 Descending Cleveland Center
04:43PM 40.0478 -78.9086 284° West 331 381 16,100 -919 Descending Cleveland Center
04:44PM 40.0742 -79.0511 284° West 343 395 15,000 -968 Descending Cleveland Center
04:45PM 40.0978 -79.1733 284° West 347 399 14,100 -968 Descending Cleveland Center
04:46PM 40.1192 -79.2925 283° West 342 394 13,000 -1,161 Descending Cleveland Center
04:47PM 40.1389 -79.3956 284° West 322 371 11,700 -1,104 Descending Cleveland Center
04:48PM 40.1617 -79.5275 283° West 312 359 10,700 -816 Descending Cleveland Center
04:49PM 40.1819 -79.6358 284° West 311 358 10,000 -339 Descending Cleveland Center
04:50PM 40.2192 -79.7367 296° West 313 360 10,000  Level Cleveland Center
04:51PM 40.2700 -79.8331 305° West 320 368 10,000  Level Cleveland Center
04:52PM 40.3233 -79.9375 304° West 340 391 10,000  Level Cleveland Center
04:53PM 40.3792 -80.0450 304° West 340 391 10,000 -677 Level Cleveland Center
04:54PM 40.4017 -80.1417 287° West 286 329 8,600 -1,728 Descending Cleveland Center
04:55PM 40.4083 -80.2594 274° West 274 315 6,400 -1,920 Descending Cleveland Center
04:56PM 40.4136 -80.3628 274° West 272 313 4,600 -1,452 Descending Cleveland Center
04:57PM 40.4394 -80.4411 293° West 274 315 3,400 -768 Descending Cleveland Center
04:58PM 40.4964 -80.4211 15° North 221 254 3,000 -435 Descending Cleveland Center
04:59PM 40.5050 -80.3617 79° East 179 206 2,500 -537 Descending Cleveland Center
05:00PM 40.5028 -80.3144 94° East 151 174 1,900 -581 Descending Cleveland Center

Login

Don't have an account? Register now (free) for customized features, flight alerts, and more!